createdAt,value
2022-10-01T00:20:50.455Z,97787.50
2022-10-01T00:25:54.630Z,97779.44
2022-10-01T00:30:57.458Z,97766.84
2022-10-01T00:36:00.279Z,97763.06
2022-10-01T00:41:06.121Z,97761.47
2022-10-01T00:46:14.037Z,97753.38
2022-10-01T00:51:17.295Z,97752.28
2022-10-01T00:56:21.461Z,97741.44
2022-10-01T01:01:24.730Z,97727.72
2022-10-01T01:06:27.581Z,97732.03
2022-10-01T01:11:43.999Z,97725.91
2022-10-01T01:16:51.510Z,97710.41
2022-10-01T01:21:59.087Z,97711.91
2022-10-01T01:27:16.175Z,97708.00
2022-10-01T01:32:25.849Z,97709.66
2022-10-01T01:37:32.141Z,97702.09
2022-10-01T01:42:37.953Z,97693.41
2022-10-01T01:47:43.598Z,97690.75
2022-10-01T01:52:46.318Z,97682.88
2022-10-01T01:57:49.283Z,97679.09
2022-10-01T02:02:56.490Z,97682.72
2022-10-01T02:08:22.901Z,97689.13
2022-10-01T02:13:38.962Z,97686.19
2022-10-01T02:18:50.548Z,97679.59
2022-10-01T02:23:59.136Z,97683.34
2022-10-01T02:29:08.065Z,97671.31
2022-10-01T02:34:19.961Z,97675.78
2022-10-01T02:39:26.024Z,97674.56
2022-10-01T02:44:37.901Z,97665.91
2022-10-01T02:49:42.547Z,97662.81
2022-10-01T02:54:51.327Z,97650.09
2022-10-01T02:59:57.570Z,97637.06
2022-10-01T03:05:02.179Z,97641.00
2022-10-01T03:10:05.247Z,97630.25
2022-10-01T03:15:08.868Z,97620.03
2022-10-01T03:20:14.086Z,97623.41
2022-10-01T03:25:17.387Z,97623.72
2022-10-01T03:30:20.092Z,97612.38
2022-10-01T03:35:24.878Z,97605.84
2022-10-01T03:40:33.348Z,97592.53
2022-10-01T03:45:36.070Z,97604.97
2022-10-01T03:50:40.238Z,97589.19
2022-10-01T03:55:43.577Z,97582.31
2022-10-01T04:00:50.245Z,97572.78
2022-10-01T04:05:54.370Z,97563.31
2022-10-01T04:10:57.142Z,97549.31
2022-10-01T04:15:59.901Z,97537.44
2022-10-01T04:21:05.099Z,97541.63
2022-10-01T04:26:08.171Z,97530.03
2022-10-01T04:31:26.256Z,97536.75
2022-10-01T04:36:31.018Z,97561.34
2022-10-01T04:41:34.975Z,97564.19
2022-10-01T04:46:37.919Z,97540.50
2022-10-01T04:51:42.190Z,97527.38
2022-10-01T04:56:44.917Z,97532.84
2022-10-01T05:01:47.871Z,97525.72
2022-10-01T05:06:52.117Z,97508.91
2022-10-01T05:11:54.985Z,97506.25
2022-10-01T05:16:57.831Z,97503.59
2022-10-01T05:22:02.187Z,97519.97
2022-10-01T05:27:05.088Z,97511.84
2022-10-01T05:32:08.048Z,97521.47
2022-10-01T05:37:12.377Z,97510.03
2022-10-01T05:42:15.248Z,97525.22
2022-10-01T05:47:20.569Z,97517.53
2022-10-01T05:52:26.654Z,97500.44
2022-10-01T05:57:30.063Z,97493.97
2022-10-01T06:02:33.520Z,97470.63
2022-10-01T06:07:37.872Z,97487.41
2022-10-01T06:12:40.767Z,97493.84
2022-10-01T06:17:45.100Z,97477.03
2022-10-01T06:22:56.429Z,97466.28
2022-10-01T06:28:00.599Z,97465.13
2022-10-01T06:33:06.137Z,97447.88
2022-10-01T06:38:11.084Z,97441.56
2022-10-01T06:43:13.951Z,97449.81
2022-10-01T06:48:19.609Z,97460.16
2022-10-01T06:53:24.142Z,97430.75
2022-10-01T06:58:27.707Z,97429.16
2022-10-01T07:03:31.039Z,97452.78
2022-10-01T07:08:35.263Z,97448.16
2022-10-01T07:13:38.388Z,97443.22
2022-10-01T07:18:41.084Z,97444.16
2022-10-01T07:23:45.484Z,97445.53
2022-10-01T07:28:48.258Z,97442.56
2022-10-01T07:33:57.211Z,97440.56
2022-10-01T07:39:02.145Z,97432.97
2022-10-01T07:44:04.907Z,97433.19
2022-10-01T07:49:07.767Z,97450.78
2022-10-01T07:54:12.877Z,97443.53
2022-10-01T07:59:16.766Z,97449.50
2022-10-01T08:04:37.384Z,97444.00
2022-10-01T08:09:42.104Z,97464.22
2022-10-01T08:14:45.819Z,97451.47
2022-10-01T08:19:48.702Z,97464.94
2022-10-01T08:24:52.774Z,97469.34
2022-10-01T08:29:55.609Z,97468.50
2022-10-01T08:35:00.016Z,97465.41
2022-10-01T08:40:06.010Z,97465.75
2022-10-01T08:45:15.247Z,97466.75
2022-10-01T08:50:29.794Z,97486.13
2022-10-01T08:55:37.425Z,97486.75
2022-10-01T09:00:45.957Z,97482.31
2022-10-01T09:06:10.117Z,97481.53
2022-10-01T09:11:33.008Z,97486.94
2022-10-01T09:16:42.782Z,97492.59
2022-10-01T09:21:55.793Z,97477.78
2022-10-01T09:27:00.792Z,97483.53
2022-10-01T09:32:06.331Z,97477.53
2022-10-01T09:37:21.215Z,97480.19
2022-10-01T09:42:29.030Z,97475.34
2022-10-01T09:47:34.421Z,97483.47
2022-10-01T09:52:40.201Z,97478.63
2022-10-01T09:57:51.566Z,97480.59
2022-10-01T10:02:56.287Z,97477.47
2022-10-01T10:08:04.474Z,97490.00
2022-10-01T10:13:21.435Z,97500.34
2022-10-01T10:18:31.071Z,97504.41
2022-10-01T10:23:34.318Z,97512.78
2022-10-01T10:28:44.587Z,97516.13
2022-10-01T10:33:53.310Z,97499.91
2022-10-01T10:38:57.933Z,97514.75
2022-10-01T10:44:06.166Z,97514.00
2022-10-01T10:49:17.058Z,97522.81
2022-10-01T10:54:23.107Z,97533.00
2022-10-01T10:59:27.322Z,97535.75
2022-10-01T11:04:41.029Z,97532.72
2022-10-01T11:10:04.433Z,97530.56
2022-10-01T11:15:24.031Z,97526.88
2022-10-01T11:20:39.603Z,97538.06
2022-10-01T11:25:52.729Z,97538.69
2022-10-01T11:31:03.298Z,97535.81
2022-10-01T11:36:15.244Z,97533.72
2022-10-01T11:41:28.393Z,97536.25
2022-10-01T11:46:42.459Z,97529.72
2022-10-01T11:51:51.229Z,97528.81
2022-10-01T11:57:16.063Z,97532.41
2022-10-01T12:02:28.207Z,97541.44
2022-10-01T12:07:38.510Z,97514.00
2022-10-01T12:12:48.074Z,97513.00
2022-10-01T12:17:56.456Z,97521.84
2022-10-01T12:23:02.344Z,97535.59
2022-10-01T12:28:10.763Z,97521.41
2022-10-01T12:33:40.897Z,97520.78
2022-10-01T12:38:55.458Z,97533.66
2022-10-01T12:44:25.016Z,97540.69
2022-10-01T12:49:35.131Z,97537.47
2022-10-01T12:54:58.013Z,97531.75
2022-10-01T13:00:09.977Z,97549.97
2022-10-01T13:05:28.778Z,97543.00
2022-10-01T13:10:48.718Z,97544.56
2022-10-01T13:15:59.678Z,97555.78
2022-10-01T13:21:12.339Z,97556.03
2022-10-01T13:26:21.052Z,97555.72
2022-10-01T13:31:35.097Z,97561.94
2022-10-01T13:36:41.083Z,97568.34
2022-10-01T13:41:44.338Z,97580.78
2022-10-01T13:46:53.081Z,97590.00
2022-10-01T13:51:58.159Z,97595.19
2022-10-01T13:57:08.903Z,97597.66
2022-10-01T14:02:29.894Z,97609.69
2022-10-01T14:07:39.919Z,97610.06
2022-10-01T14:13:03.436Z,97623.06
2022-10-01T14:18:11.287Z,97624.31
2022-10-01T14:23:20.857Z,97634.94
2022-10-01T14:28:49.908Z,97639.22
2022-10-01T14:34:10.638Z,97651.06
2022-10-01T14:39:17.742Z,97652.41
2022-10-01T14:44:22.118Z,97662.09
2022-10-01T14:49:27.390Z,97657.53
2022-10-01T14:54:39.287Z,97655.16
2022-10-01T14:59:42.475Z,97664.34
2022-10-01T15:04:48.981Z,97678.84
2022-10-01T15:09:53.160Z,97684.97
2022-10-01T15:14:56.825Z,97673.06
2022-10-01T15:19:59.935Z,97690.25
2022-10-01T15:25:04.258Z,97697.34
2022-10-01T15:30:14.894Z,97706.38
2022-10-01T15:35:22.011Z,97721.59
2022-10-01T15:40:28.830Z,97718.31
2022-10-01T15:45:31.583Z,97715.09
2022-10-01T15:50:37.551Z,97719.00
2022-10-01T15:55:44.697Z,97731.63
2022-10-01T16:00:57.560Z,97748.19
2022-10-01T16:06:03.295Z,97759.66
2022-10-01T16:11:18.685Z,97767.06
2022-10-01T16:16:25.138Z,97773.22
2022-10-01T16:21:28.189Z,97772.91
2022-10-01T16:26:52.227Z,97784.53
2022-10-01T16:31:56.923Z,97809.25
2022-10-01T16:37:00.031Z,97814.81
2022-10-01T16:42:23.196Z,97823.06
2022-10-01T16:47:26.706Z,97846.78
2022-10-01T16:52:29.497Z,97849.78
2022-10-01T16:57:34.220Z,97875.47
2022-10-01T17:02:36.909Z,97868.75
2022-10-01T17:07:39.703Z,97876.47
2022-10-01T17:12:44.521Z,97874.97
2022-10-01T17:17:47.755Z,97881.47
2022-10-01T17:22:51.646Z,97887.13
2022-10-01T17:27:56.736Z,97900.97
2022-10-01T17:33:02.121Z,97908.78
2022-10-01T17:38:04.888Z,97925.75
2022-10-01T17:43:11.638Z,97936.34
2022-10-01T17:48:16.213Z,97950.38
2022-10-01T17:53:21.787Z,97964.09
2022-10-01T17:58:26.715Z,97982.53
2022-10-01T18:03:29.918Z,97997.13
2022-10-01T18:14:00.996Z,98014.09
2022-10-01T18:24:27.326Z,98037.41
2022-10-01T18:29:31.618Z,98045.50
2022-10-01T18:34:40.717Z,98052.06
2022-10-01T18:39:46.357Z,98049.91
2022-10-01T18:44:53.719Z,98058.94
2022-10-01T18:50:11.133Z,98079.94
2022-10-01T18:55:30.352Z,98093.16
2022-10-01T19:00:41.673Z,98109.59
2022-10-01T19:06:04.759Z,98111.41
2022-10-01T19:11:18.167Z,98114.25
2022-10-01T19:16:38.147Z,98118.38
2022-10-01T19:21:49.326Z,98127.31
2022-10-01T19:26:58.887Z,98135.28
2022-10-01T19:32:08.423Z,98146.03
2022-10-01T19:37:17.079Z,98163.50
2022-10-01T19:42:24.276Z,98160.44
2022-10-01T19:47:37.340Z,98166.50
2022-10-01T19:52:42.668Z,98172.31
2022-10-01T19:57:46.334Z,98189.25
2022-10-01T20:03:02.159Z,98201.34
2022-10-01T20:08:14.517Z,98217.69
2022-10-01T20:13:28.208Z,98226.13
2022-10-01T20:18:40.967Z,98234.72
2022-10-01T20:23:50.191Z,98249.38
2022-10-01T20:29:09.285Z,98246.81
2022-10-01T20:34:21.623Z,98252.63
2022-10-01T20:39:29.172Z,98265.56
2022-10-01T20:44:36.386Z,98271.56
2022-10-01T20:49:46.324Z,98274.94
2022-10-01T20:54:52.854Z,98276.34
2022-10-01T20:59:59.356Z,98269.78
2022-10-01T21:05:08.971Z,98279.75
2022-10-01T21:10:26.200Z,98278.19
2022-10-01T21:15:35.195Z,98290.84
2022-10-01T21:20:49.048Z,98300.81
2022-10-01T21:26:05.841Z,98311.91
2022-10-01T21:31:21.550Z,98316.81
2022-10-01T21:36:32.142Z,98327.06
2022-10-01T21:41:52.059Z,98331.28
2022-10-01T21:47:00.947Z,98333.25
2022-10-01T21:52:17.712Z,98345.72
2022-10-01T21:57:36.813Z,98341.66
2022-10-01T22:02:47.496Z,98353.47
2022-10-01T22:08:02.186Z,98351.34
2022-10-01T22:13:12.331Z,98362.44
2022-10-01T22:18:20.247Z,98373.56
2022-10-01T22:23:26.489Z,98365.72
2022-10-01T22:28:36.095Z,98367.44
2022-10-01T22:33:44.963Z,98376.41
2022-10-01T22:38:54.048Z,98375.13
2022-10-01T22:43:57.039Z,98394.81
2022-10-01T22:49:04.733Z,98399.88
2022-10-01T22:54:31.139Z,98407.38
2022-10-01T22:59:43.513Z,98419.63
2022-10-01T23:04:58.735Z,98409.31
2022-10-01T23:10:10.382Z,98410.44
2022-10-01T23:15:26.799Z,98413.81
2022-10-01T23:20:33.005Z,98422.22
2022-10-01T23:25:49.818Z,98432.63
2022-10-01T23:31:03.602Z,98443.84
2022-10-01T23:36:17.293Z,98432.91
2022-10-01T23:41:26.372Z,98439.06
2022-10-01T23:46:32.465Z,98427.28
2022-10-01T23:51:39.205Z,98436.28
2022-10-01T23:56:50.812Z,98435.56
